Burlington, North Dakota
Current Conditions -  °F | °C
As of 12:54 AM on Saturday 20 Dec 2014 (Local Time) from KMOT Reporting Station
Moderate Fog Moderate Fog  
Wind Chill: 16°   Ceiling: 200
Heat Index: 22°   Visibility: 0.25mi
Dew Point: 19°   Wind: 5mph
Humidity: 89%   Direction: 210°SSW
Pressure: 29.93"   Gusts: NA
Location:  48.28°N, 101.43°W
Report Text: KMOT 200654Z AUTO 21004KT 1/4SM FZFG VV002 M06/M07 A2993 RMK AO2 SNB20E29 SLP162 P0000 T10561072
Loading
Personal Weather Stations






























Interactive Weather Map New forecast layout! Learn more

10-Day Weather Forecast

Advertisements
Track Severe Weather on mobile